Terminal Aerodrome Forecast
Issued by NWS

Home | Current Version | Previous Version | Text Only | Print | Product List | Glossary On
Versions: 1 2 3 4 5 6 7 8 9 10 11 12 13 14 15 16
000
FTUS44 KOUN 172333
TAFLAW
TAF
KLAW 172333Z 1800/1824 VRB03KT P6SM OVC080
      TEMPO 1800/1803 -SHRA
     FM180300 VRB03KT 6SM -SHRA OVC040
     FM181000 19005KT 5SM BR VCSH BKN015
     FM181800 18010KT P6SM BKN025=

USA.gov is the U.S. government's official web portal to all federal, state and local government web resources and services.